Time;durP1;ratioP1;P1;durP2;ratioP2;P2;SDS_P1;SDS_P2;PMS_P1;PMS_P2;Temp;Humidity;BMP_temperature;BMP_pressure;BME280_temperature;BME280_humidity;BME280_pressure;Samples;Min_cycle;Max_cycle;Signal;HPM_P1;HPM_P2
2022/03/13 00:01:32;;;;;;;;;;;14.50;56.90;;;;;;5268817;28;19920;-29
2022/03/13 00:04:04;;;;;;;;;;;14.50;56.80;;;;;;5269630;28;19946;-28
2022/03/13 00:06:36;;;;;;;;;;;14.50;56.70;;;;;;5268713;28;19920;-29
2022/03/13 00:09:09;;;;;;;;;;;14.50;56.90;;;;;;5269656;28;19920;-28
2022/03/13 00:11:40;;;;;;;;;;;14.50;57.00;;;;;;5269811;28;20477;-29
2022/03/13 00:14:13;;;;;;;;;;;14.50;56.90;;;;;;5269677;28;19920;-29
2022/03/13 00:16:43;;;;;;;;;;;14.50;57.00;;;;;;5268453;28;19950;-31
2022/03/13 00:19:16;;;;;;;;;;;14.50;57.10;;;;;;5269298;28;19927;-31
2022/03/13 00:21:53;;;;;;;;;;;14.50;57.10;;;;;;5269336;28;19920;-29
2022/03/13 00:24:28;;;;;;;;;;;14.40;57.10;;;;;;5269247;28;19928;-29
2022/03/13 00:27:00;;;;;;;;;;;14.40;57.00;;;;;;5269542;28;19926;-29
2022/03/13 00:29:31;;;;;;;;;;;14.40;57.00;;;;;;5269574;28;20006;-29
2022/03/13 00:32:03;;;;;;;;;;;14.40;57.10;;;;;;5271994;28;20341;-31
2022/03/13 00:34:34;;;;;;;;;;;14.40;57.10;;;;;;5273434;28;19931;-30
2022/03/13 00:37:06;;;;;;;;;;;14.40;57.10;;;;;;5273520;28;19947;-30
2022/03/13 00:39:40;;;;;;;;;;;14.40;57.10;;;;;;5273430;28;20019;-28
2022/03/13 00:42:12;;;;;;;;;;;14.40;57.20;;;;;;5273345;28;19920;-32
2022/03/13 00:44:43;;;;;;;;;;;14.30;57.20;;;;;;5273715;28;19920;-29
2022/03/13 00:47:14;;;;;;;;;;;14.40;57.30;;;;;;5272976;28;19931;-29
2022/03/13 00:49:45;;;;;;;;;;;14.30;57.20;;;;;;5273453;28;20412;-33
2022/03/13 00:52:17;;;;;;;;;;;14.30;57.30;;;;;;5273169;28;19998;-30
2022/03/13 00:54:48;;;;;;;;;;;14.30;57.30;;;;;;5255469;28;20315;-29
2022/03/13 00:57:19;;;;;;;;;;;14.30;57.30;;;;;;5273085;28;19924;-29
2022/03/13 00:59:50;;;;;;;;;;;14.30;57.10;;;;;;5272956;28;19920;-29
2022/03/13 01:02:20;;;;;;;;;;;14.30;57.10;;;;;;5272993;28;19927;-29
2022/03/13 01:04:51;;;;;;;;;;;14.30;57.10;;;;;;5237550;28;19920;-29
2022/03/13 01:07:22;;;;;;;;;;;14.30;57.20;;;;;;5272482;28;19920;-29
2022/03/13 01:09:53;;;;;;;;;;;14.30;57.30;;;;;;5272392;28;20077;-29
2022/03/13 01:12:24;;;;;;;;;;;14.30;57.30;;;;;;5272761;28;19966;-33
2022/03/13 01:14:55;;;;;;;;;;;14.30;57.30;;;;;;5272442;28;19920;-28
2022/03/13 01:17:26;;;;;;;;;;;14.20;57.40;;;;;;5272244;28;19959;-29
2022/03/13 01:19:57;;;;;;;;;;;14.20;57.20;;;;;;5254401;28;19927;-29
2022/03/13 01:22:28;;;;;;;;;;;14.20;57.30;;;;;;5272213;28;19920;-30
2022/03/13 01:24:59;;;;;;;;;;;14.20;57.40;;;;;;5254615;28;20002;-29
2022/03/13 01:27:31;;;;;;;;;;;14.20;57.40;;;;;;5254774;28;20039;-29
2022/03/13 01:30:03;;;;;;;;;;;14.20;57.40;;;;;;5272035;28;19955;-29
2022/03/13 01:32:34;;;;;;;;;;;14.20;57.40;;;;;;5272117;28;19924;-29
2022/03/13 01:35:06;;;;;;;;;;;14.20;57.40;;;;;;5272530;28;20069;-28
2022/03/13 01:37:38;;;;;;;;;;;14.20;57.40;;;;;;5271693;28;20424;-29
2022/03/13 01:40:09;;;;;;;;;;;14.20;57.50;;;;;;5272256;28;19920;-29
2022/03/13 01:42:40;;;;;;;;;;;14.20;57.40;;;;;;5271227;28;19927;-28
2022/03/13 01:45:12;;;;;;;;;;;14.10;57.30;;;;;;5271983;28;19920;-29
2022/03/13 01:47:43;;;;;;;;;;;14.10;57.40;;;;;;5272025;28;19927;-29
2022/03/13 01:50:14;;;;;;;;;;;14.20;57.50;;;;;;5272078;28;20391;-29
2022/03/13 01:52:45;;;;;;;;;;;14.10;57.50;;;;;;5271769;28;19920;-32
2022/03/13 01:55:17;;;;;;;;;;;14.10;57.60;;;;;;5254105;28;19945;-29
2022/03/13 01:57:49;;;;;;;;;;;14.10;57.50;;;;;;5253651;28;19923;-29
2022/03/13 02:00:20;;;;;;;;;;;14.10;57.60;;;;;;5271937;28;19920;-29
2022/03/13 02:02:52;;;;;;;;;;;14.10;57.70;;;;;;5271745;28;20341;-29
2022/03/13 02:05:28;;;;;;;;;;;14.10;57.60;;;;;;5253769;28;19919;-27
2022/03/13 02:08:00;;;;;;;;;;;14.10;57.60;;;;;;5271498;28;19943;-29
2022/03/13 02:10:31;;;;;;;;;;;14.10;57.60;;;;;;5272167;28;19920;-30
2022/03/13 02:13:02;;;;;;;;;;;14.10;57.50;;;;;;5271911;28;20277;-29
2022/03/13 02:15:34;;;;;;;;;;;14.10;57.50;;;;;;5236539;28;19931;-32
2022/03/13 02:18:05;;;;;;;;;;;14.10;57.50;;;;;;5271137;28;20254;-30
2022/03/13 02:20:41;;;;;;;;;;;14.10;57.50;;;;;;5271601;28;20345;-31
2022/03/13 02:23:18;;;;;;;;;;;14.10;57.50;;;;;;5253892;28;20361;-30
2022/03/13 02:25:53;;;;;;;;;;;14.10;57.50;;;;;;5271071;28;19920;-30
2022/03/13 02:28:25;;;;;;;;;;;14.00;57.50;;;;;;5271021;28;19931;-29
2022/03/13 02:30:57;;;;;;;;;;;14.00;57.40;;;;;;5253051;28;20281;-30
2022/03/13 02:33:28;;;;;;;;;;;14.00;57.40;;;;;;5270853;28;19920;-29
2022/03/13 02:36:03;;;;;;;;;;;14.00;57.40;;;;;;5270871;28;19927;-28
2022/03/13 02:38:34;;;;;;;;;;;14.00;57.40;;;;;;5253063;28;19924;-31
2022/03/13 02:41:05;;;;;;;;;;;14.00;57.40;;;;;;5271445;28;20404;-28
2022/03/13 02:43:36;;;;;;;;;;;14.00;57.40;;;;;;5270835;28;19920;-32
2022/03/13 02:46:14;;;;;;;;;;;14.00;57.30;;;;;;5270476;28;19920;-29
2022/03/13 02:48:45;;;;;;;;;;;14.00;57.30;;;;;;5271306;28;20242;-29
2022/03/13 02:51:16;;;;;;;;;;;14.00;57.30;;;;;;5270883;28;20258;-30
2022/03/13 02:53:47;;;;;;;;;;;14.00;57.30;;;;;;5270924;28;19928;-32
2022/03/13 02:56:18;;;;;;;;;;;14.00;57.20;;;;;;5270179;28;19924;-32
2022/03/13 02:58:49;;;;;;;;;;;14.00;57.10;;;;;;5270570;28;19973;-29
2022/03/13 03:01:21;;;;;;;;;;;13.90;56.50;;;;;;5270624;28;20384;-29
2022/03/13 03:03:52;;;;;;;;;;;13.90;56.30;;;;;;5270421;28;19923;-29
2022/03/13 03:06:23;;;;;;;;;;;13.90;56.40;;;;;;5269269;28;19923;-29
2022/03/13 03:08:54;;;;;;;;;;;13.90;56.30;;;;;;5270422;28;19950;-29
2022/03/13 03:11:25;;;;;;;;;;;13.90;56.30;;;;;;5269792;28;20400;-28
2022/03/13 03:13:57;;;;;;;;;;;13.90;56.10;;;;;;5270051;28;19951;-29
2022/03/13 03:16:28;;;;;;;;;;;13.90;56.10;;;;;;5270213;28;20281;-31
2022/03/13 03:18:59;;;;;;;;;;;13.90;56.50;;;;;;5270219;28;19920;-28
2022/03/13 03:21:30;;;;;;;;;;;13.90;56.10;;;;;;5270199;28;20319;-32
2022/03/13 03:24:00;;;;;;;;;;;13.90;56.10;;;;;;5270082;28;19920;-33
2022/03/13 03:26:32;;;;;;;;;;;14.00;56.00;;;;;;5269422;28;20393;-30
2022/03/13 03:29:04;;;;;;;;;;;14.00;55.90;;;;;;5251420;28;19924;-33
2022/03/13 03:31:42;;;;;;;;;;;14.00;55.90;;;;;;5270007;28;19927;-29
2022/03/13 03:34:14;;;;;;;;;;;14.00;55.90;;;;;;5269913;28;19927;-28
2022/03/13 03:36:48;;;;;;;;;;;14.00;55.80;;;;;;5269837;28;19920;-29
2022/03/13 03:39:20;;;;;;;;;;;14.00;55.70;;;;;;5269974;28;19919;-29
2022/03/13 03:41:51;;;;;;;;;;;14.00;55.70;;;;;;5235241;28;19963;-29
2022/03/13 03:44:22;;;;;;;;;;;14.10;55.80;;;;;;5252578;28;19970;-29
2022/03/13 03:46:55;;;;;;;;;;;14.10;55.80;;;;;;5251974;28;19923;-30
2022/03/13 03:49:25;;;;;;;;;;;14.10;55.80;;;;;;5270035;28;19920;-29
2022/03/13 03:51:56;;;;;;;;;;;14.00;55.70;;;;;;5269432;28;20037;-28
2022/03/13 03:54:27;;;;;;;;;;;14.00;55.60;;;;;;5269645;28;19920;-31
2022/03/13 03:56:58;;;;;;;;;;;14.00;55.60;;;;;;5251764;28;19927;-29
2022/03/13 03:59:29;;;;;;;;;;;14.10;55.70;;;;;;5269871;28;19920;-29
2022/03/13 04:02:00;;;;;;;;;;;14.10;55.50;;;;;;5269816;28;19966;-32
2022/03/13 04:04:31;;;;;;;;;;;14.20;56.00;;;;;;5269895;28;19928;-30
2022/03/13 04:07:02;;;;;;;;;;;14.30;55.40;;;;;;5253695;28;19927;-32
2022/03/13 04:09:33;;;;;;;;;;;14.30;55.30;;;;;;5274016;28;20335;-30
2022/03/13 04:12:07;;;;;;;;;;;14.40;55.20;;;;;;5273985;28;19927;-28
2022/03/13 04:14:38;;;;;;;;;;;14.40;55.10;;;;;;5273929;28;19919;-28
2022/03/13 04:17:09;;;;;;;;;;;14.40;55.10;;;;;;5273693;28;19927;-29
2022/03/13 04:19:40;;;;;;;;;;;14.40;54.90;;;;;;5273519;28;19920;-28
2022/03/13 04:22:12;;;;;;;;;;;14.40;54.90;;;;;;5273779;28;19974;-30
2022/03/13 04:24:42;;;;;;;;;;;14.50;55.00;;;;;;5273533;28;19920;-29
2022/03/13 04:27:13;;;;;;;;;;;14.50;55.00;;;;;;5273481;28;20369;-28
2022/03/13 04:29:44;;;;;;;;;;;14.50;55.00;;;;;;5273540;28;19919;-30
2022/03/13 04:32:18;;;;;;;;;;;14.50;55.10;;;;;;5273601;28;19920;-29
2022/03/13 04:34:48;;;;;;;;;;;14.50;55.30;;;;;;5273514;28;20270;-28
2022/03/13 04:37:22;;;;;;;;;;;14.50;55.40;;;;;;5237630;28;20401;-30
2022/03/13 04:39:53;;;;;;;;;;;14.50;55.50;;;;;;5273168;28;19924;-28
2022/03/13 04:42:24;;;;;;;;;;;14.50;55.60;;;;;;5273157;28;19920;-28
2022/03/13 04:44:55;;;;;;;;;;;14.50;55.60;;;;;;5273939;28;19920;-31
2022/03/13 04:47:31;;;;;;;;;;;14.50;55.20;;;;;;5273212;28;19935;-29
2022/03/13 04:50:02;;;;;;;;;;;14.50;55.10;;;;;;5273410;28;19965;-32
2022/03/13 04:52:33;;;;;;;;;;;14.40;55.10;;;;;;5272932;28;19920;-28
2022/03/13 04:55:05;;;;;;;;;;;14.40;55.10;;;;;;5272890;28;19920;-32
2022/03/13 04:57:35;;;;;;;;;;;14.40;55.00;;;;;;5273136;28;19955;-30
2022/03/13 05:00:07;;;;;;;;;;;14.30;54.90;;;;;;5272937;28;19955;-29
2022/03/13 05:02:38;;;;;;;;;;;14.30;55.50;;;;;;5254489;28;20011;-27
2022/03/13 05:05:09;;;;;;;;;;;14.30;55.00;;;;;;5272937;28;20010;-32
2022/03/13 05:07:40;;;;;;;;;;;14.30;55.00;;;;;;5254798;28;19920;-28
2022/03/13 05:10:11;;;;;;;;;;;14.40;55.10;;;;;;5254897;28;19926;-29
2022/03/13 05:12:44;;;;;;;;;;;14.40;55.10;;;;;;5273039;28;19992;-28
2022/03/13 05:15:15;;;;;;;;;;;14.40;55.20;;;;;;5272890;28;19965;-31
2022/03/13 05:17:46;;;;;;;;;;;14.40;55.10;;;;;;5271255;28;19920;-28
2022/03/13 05:20:18;;;;;;;;;;;14.40;55.20;;;;;;5272383;28;19920;-29
2022/03/13 05:22:49;;;;;;;;;;;14.40;55.20;;;;;;5272582;28;19989;-31
2022/03/13 05:25:19;;;;;;;;;;;14.40;55.00;;;;;;5272257;28;19920;-29
2022/03/13 05:27:51;;;;;;;;;;;14.40;55.00;;;;;;5271596;28;19920;-30
2022/03/13 05:30:21;;;;;;;;;;;14.40;54.90;;;;;;5272087;28;20327;-29
2022/03/13 05:32:52;;;;;;;;;;;14.40;55.00;;;;;;5254404;28;19920;-29
2022/03/13 05:35:23;;;;;;;;;;;14.50;55.10;;;;;;5272197;28;19927;-30
2022/03/13 05:37:54;;;;;;;;;;;14.50;55.00;;;;;;5272071;28;19920;-29
2022/03/13 05:40:25;;;;;;;;;;;14.70;55.00;;;;;;5272081;28;20311;-30
2022/03/13 05:42:58;;;;;;;;;;;14.80;57.30;;;;;;5253971;28;19920;-29
2022/03/13 05:45:29;;;;;;;;;;;15.00;61.80;;;;;;5253673;28;20388;-30
2022/03/13 05:48:08;;;;;;;;;;;15.20;65.90;;;;;;5272138;28;19962;-31
2022/03/13 05:50:39;;;;;;;;;;;15.30;67.30;;;;;;5271764;28;20365;-28
2022/03/13 05:53:10;;;;;;;;;;;15.40;64.20;;;;;;5249298;28;20331;-31
2022/03/13 05:55:41;;;;;;;;;;;15.50;62.90;;;;;;5251056;28;20011;-28
2022/03/13 05:58:13;;;;;;;;;;;15.50;61.80;;;;;;5250758;28;19950;-30
2022/03/13 06:00:47;;;;;;;;;;;15.50;61.30;;;;;;5250632;28;19924;-28
2022/03/13 06:03:18;;;;;;;;;;;15.50;61.20;;;;;;5250846;28;20339;-28
2022/03/13 06:05:49;;;;;;;;;;;15.50;60.90;;;;;;5250687;28;20018;-28
2022/03/13 06:08:20;;;;;;;;;;;15.50;60.70;;;;;;5250686;28;20081;-29
2022/03/13 06:10:51;;;;;;;;;;;15.50;60.50;;;;;;5250538;28;19952;-28
2022/03/13 06:13:22;;;;;;;;;;;15.40;60.20;;;;;;5250345;28;19951;-27
2022/03/13 06:15:53;;;;;;;;;;;15.40;60.00;;;;;;5250442;28;19924;-29
2022/03/13 06:18:26;;;;;;;;;;;15.30;59.80;;;;;;5249614;28;19943;-28
2022/03/13 06:20:57;;;;;;;;;;;15.30;60.00;;;;;;5250446;28;19921;-28
2022/03/13 06:23:29;;;;;;;;;;;15.30;60.00;;;;;;5249578;28;20266;-27
2022/03/13 06:26:00;;;;;;;;;;;15.20;59.90;;;;;;5250392;28;20354;-28
2022/03/13 06:28:31;;;;;;;;;;;15.20;59.80;;;;;;5249696;28;19920;-28
2022/03/13 06:31:02;;;;;;;;;;;15.20;60.00;;;;;;5249941;28;20475;-28
2022/03/13 06:33:34;;;;;;;;;;;15.20;60.00;;;;;;5250587;28;19924;-28
2022/03/13 06:36:07;;;;;;;;;;;15.10;60.00;;;;;;5250181;28;19969;-28
2022/03/13 06:38:39;;;;;;;;;;;15.10;60.70;;;;;;5249908;28;20289;-30
2022/03/13 06:41:09;;;;;;;;;;;15.10;60.10;;;;;;5249764;28;19930;-28
2022/03/13 06:43:40;;;;;;;;;;;15.00;60.30;;;;;;5249833;28;19920;-28
2022/03/13 06:46:11;;;;;;;;;;;15.00;60.50;;;;;;5250001;28;19920;-28
2022/03/13 06:48:42;;;;;;;;;;;15.00;60.60;;;;;;5250217;28;19920;-29
2022/03/13 06:51:13;;;;;;;;;;;15.00;60.70;;;;;;5249744;28;19993;-28
2022/03/13 06:53:44;;;;;;;;;;;14.90;60.70;;;;;;5268149;28;19920;-28
2022/03/13 06:56:15;;;;;;;;;;;14.90;60.80;;;;;;5270571;28;20026;-29
2022/03/13 06:58:46;;;;;;;;;;;14.90;61.00;;;;;;5270634;28;20419;-31
2022/03/13 07:01:17;;;;;;;;;;;14.90;61.30;;;;;;5270438;28;20354;-28
2022/03/13 07:03:48;;;;;;;;;;;14.90;61.10;;;;;;5270512;28;19920;-28
2022/03/13 07:06:19;;;;;;;;;;;14.90;61.30;;;;;;5251667;28;19920;-29
2022/03/13 07:08:53;;;;;;;;;;;14.90;61.30;;;;;;5269777;28;21257;-29
2022/03/13 07:11:30;;;;;;;;;;;14.90;61.50;;;;;;5251861;28;20380;-31
2022/03/13 07:14:04;;;;;;;;;;;14.80;61.60;;;;;;5270181;28;19924;-29
2022/03/13 07:16:35;;;;;;;;;;;14.80;61.70;;;;;;5270359;28;19924;-29
2022/03/13 07:19:06;;;;;;;;;;;14.80;61.70;;;;;;5270710;28;19931;-28
2022/03/13 07:21:38;;;;;;;;;;;14.80;61.70;;;;;;5251978;28;19931;-29
2022/03/13 07:24:09;;;;;;;;;;;14.80;61.80;;;;;;5270276;28;19977;-33
2022/03/13 07:26:39;;;;;;;;;;;14.80;61.90;;;;;;5269920;28;20312;-29
2022/03/13 07:29:10;;;;;;;;;;;14.80;61.80;;;;;;5270472;28;20308;-32
2022/03/13 07:31:41;;;;;;;;;;;14.80;61.80;;;;;;5270236;28;19931;-30
2022/03/13 07:34:12;;;;;;;;;;;14.80;66.10;;;;;;5270127;28;19924;-28
2022/03/13 07:36:43;;;;;;;;;;;14.80;72.30;;;;;;5270200;28;19928;-31
2022/03/13 07:39:14;;;;;;;;;;;14.90;71.70;;;;;;5270641;28;19928;-29
2022/03/13 07:41:45;;;;;;;;;;;14.90;71.20;;;;;;5268998;28;19924;-30
2022/03/13 07:44:16;;;;;;;;;;;14.90;70.50;;;;;;5264461;28;20336;-31
2022/03/13 07:46:47;;;;;;;;;;;14.90;70.20;;;;;;5272745;28;19924;-29
2022/03/13 07:49:21;;;;;;;;;;;15.00;69.30;;;;;;5261659;28;20450;-31
2022/03/13 07:51:51;;;;;;;;;;;14.90;69.10;;;;;;5288239;28;19955;-33
2022/03/13 07:54:22;;;;;;;;;;;14.90;68.40;;;;;;5288951;28;19985;-31
2022/03/13 07:56:53;;;;;;;;;;;14.90;69.50;;;;;;5238744;28;19931;-28
2022/03/13 07:59:27;;;;;;;;;;;14.90;66.20;;;;;;5288563;28;20407;-29
2022/03/13 08:01:58;;;;;;;;;;;14.90;63.60;;;;;;5288411;28;19977;-31
2022/03/13 08:04:33;;;;;;;;;;;14.90;63.30;;;;;;5288317;28;19973;-29
2022/03/13 08:07:04;;;;;;;;;;;14.90;63.30;;;;;;5285022;28;19967;-30
2022/03/13 08:09:35;;;;;;;;;;;14.90;63.30;;;;;;5277903;28;20369;-28
2022/03/13 08:12:07;;;;;;;;;;;14.90;63.00;;;;;;5288235;28;19985;-28
2022/03/13 08:14:38;;;;;;;;;;;14.90;63.00;;;;;;5288448;28;19924;-28
2022/03/13 08:17:09;;;;;;;;;;;14.90;63.00;;;;;;5285688;28;19924;-29
2022/03/13 08:19:40;;;;;;;;;;;14.90;63.00;;;;;;5276805;28;19928;-30
2022/03/13 08:22:10;;;;;;;;;;;14.90;62.80;;;;;;5288406;28;19927;-32
2022/03/13 08:24:42;;;;;;;;;;;14.90;62.60;;;;;;5279560;28;19932;-28
2022/03/13 08:27:13;;;;;;;;;;;14.90;62.30;;;;;;5282787;28;19923;-32
2022/03/13 08:29:44;;;;;;;;;;;14.90;62.10;;;;;;5288613;28;19934;-31
2022/03/13 08:32:18;;;;;;;;;;;14.90;61.90;;;;;;5262491;28;19971;-32
2022/03/13 08:34:57;;;;;;;;;;;14.90;61.90;;;;;;5287227;28;19924;-29
2022/03/13 08:37:34;;;;;;;;;;;14.90;61.60;;;;;;5267764;28;19928;-29
2022/03/13 08:40:05;;;;;;;;;;;14.80;61.30;;;;;;5279916;28;19923;-31
2022/03/13 08:42:36;;;;;;;;;;;14.90;61.10;;;;;;5265253;28;20010;-30
2022/03/13 08:45:12;;;;;;;;;;;14.80;61.20;;;;;;5249209;28;19978;-29
2022/03/13 08:47:47;;;;;;;;;;;14.80;60.90;;;;;;5249227;28;19930;-32
2022/03/13 08:50:20;;;;;;;;;;;14.80;60.80;;;;;;5249004;28;20460;-28
2022/03/13 08:52:51;;;;;;;;;;;14.80;60.80;;;;;;5281488;28;20335;-30
2022/03/13 08:55:24;;;;;;;;;;;14.80;70.90;;;;;;5253724;28;19934;-29
2022/03/13 08:57:54;;;;;;;;;;;14.90;73.90;;;;;;5252810;28;19924;-29
2022/03/13 09:00:27;;;;;;;;;;;14.90;75.30;;;;;;5289406;28;19985;-28
2022/03/13 09:02:58;;;;;;;;;;;15.00;77.50;;;;;;5279640;28;20404;-29
2022/03/13 09:05:29;;;;;;;;;;;15.10;78.30;;;;;;5270506;28;19924;-31
2022/03/13 09:08:01;;;;;;;;;;;15.20;79.60;;;;;;5270099;28;19930;-30
2022/03/13 09:10:35;;;;;;;;;;;15.40;81.10;;;;;;5276688;28;19960;-28
2022/03/13 09:13:07;;;;;;;;;;;15.50;77.90;;;;;;5278120;28;19967;-29
2022/03/13 09:15:39;;;;;;;;;;;15.60;69.00;;;;;;5270438;28;19924;-29
2022/03/13 09:18:10;;;;;;;;;;;15.60;71.40;;;;;;5263597;28;19923;-31
2022/03/13 09:20:41;;;;;;;;;;;15.60;63.70;;;;;;5270396;28;20327;-28
2022/03/13 09:23:13;;;;;;;;;;;15.60;67.20;;;;;;5269927;28;19971;-29
2022/03/13 09:25:45;;;;;;;;;;;15.60;63.90;;;;;;5269673;28;19928;-29
2022/03/13 09:28:20;;;;;;;;;;;15.60;57.90;;;;;;5252957;28;20387;-29
2022/03/13 09:30:51;;;;;;;;;;;15.60;56.40;;;;;;5289548;28;20524;-31
2022/03/13 09:33:22;;;;;;;;;;;15.60;55.80;;;;;;5291189;28;19962;-29
2022/03/13 09:35:53;;;;;;;;;;;15.60;55.50;;;;;;5290483;28;19928;-29
2022/03/13 09:38:25;;;;;;;;;;;15.60;55.50;;;;;;5290725;28;19930;-29
2022/03/13 09:40:59;;;;;;;;;;;15.60;55.60;;;;;;5256073;28;20292;-29
2022/03/13 09:43:30;;;;;;;;;;;15.60;55.60;;;;;;5291189;28;20056;-29
2022/03/13 09:46:01;;;;;;;;;;;15.60;56.00;;;;;;5258400;28;19924;-29
2022/03/13 09:48:34;;;;;;;;;;;15.60;56.20;;;;;;5276276;28;19930;-29
2022/03/13 09:51:07;;;;;;;;;;;15.60;58.80;;;;;;5290719;28;19924;-28
2022/03/13 09:53:38;;;;;;;;;;;15.60;61.90;;;;;;5290520;28;19924;-32
2022/03/13 09:56:09;;;;;;;;;;;15.50;60.10;;;;;;5290570;28;19924;-31
2022/03/13 09:58:41;;;;;;;;;;;15.50;64.40;;;;;;5289892;28;20100;-30
2022/03/13 10:01:14;;;;;;;;;;;15.50;68.90;;;;;;5289895;28;19931;-29
2022/03/13 10:03:45;;;;;;;;;;;15.60;71.60;;;;;;5289842;28;19928;-29
2022/03/13 10:06:16;;;;;;;;;;;15.50;67.20;;;;;;5260568;28;19928;-30
2022/03/13 10:08:51;;;;;;;;;;;15.60;70.20;;;;;;5254451;28;20396;-29
2022/03/13 10:11:32;;;;;;;;;;;15.60;68.10;;;;;;5260655;28;20389;-29
2022/03/13 10:14:06;;;;;;;;;;;15.60;70.10;;;;;;5251317;28;19924;-29
2022/03/13 10:16:38;;;;;;;;;;;15.50;67.50;;;;;;5250703;28;19928;-31
2022/03/13 10:19:16;;;;;;;;;;;15.50;69.10;;;;;;5250977;28;20027;-29
2022/03/13 10:22:01;;;;;;;;;;;15.50;66.00;;;;;;5251134;28;20328;-29
2022/03/13 10:24:40;;;;;;;;;;;15.50;68.30;;;;;;5262680;28;19947;-29
2022/03/13 10:27:15;;;;;;;;;;;15.50;68.90;;;;;;5289613;28;20595;-29
2022/03/13 10:29:47;;;;;;;;;;;15.40;67.00;;;;;;5289665;28;19924;-29
2022/03/13 10:32:20;;;;;;;;;;;15.40;75.40;;;;;;5257061;28;20018;-31
2022/03/13 10:34:54;;;;;;;;;;;15.40;71.40;;;;;;5289742;28;20665;-30
2022/03/13 10:37:39;;;;;;;;;;;15.40;67.60;;;;;;5257582;28;20369;-29
2022/03/13 10:40:13;;;;;;;;;;;15.40;70.00;;;;;;5261880;28;19927;-31
2022/03/13 10:42:44;;;;;;;;;;;15.40;69.80;;;;;;5253450;28;19981;-31
2022/03/13 10:45:36;;;;;;;;;;;15.30;70.70;;;;;;5289760;28;19924;-29
2022/03/13 10:48:16;;;;;;;;;;;15.30;68.10;;;;;;5275138;28;20034;-29
2022/03/13 10:50:48;;;;;;;;;;;15.30;63.30;;;;;;5279008;28;19924;-31
2022/03/13 10:53:20;;;;;;;;;;;15.30;61.40;;;;;;5281705;28;19927;-29
2022/03/13 10:56:01;;;;;;;;;;;15.30;58.10;;;;;;5268016;28;19971;-29
2022/03/13 10:58:32;;;;;;;;;;;15.20;57.80;;;;;;5268476;28;19924;-29
2022/03/13 11:01:04;;;;;;;;;;;15.20;60.80;;;;;;5268243;28;20447;-29
2022/03/13 11:03:38;;;;;;;;;;;15.20;60.00;;;;;;5250001;28;19924;-29
2022/03/13 11:06:10;;;;;;;;;;;15.20;57.30;;;;;;5250475;28;19924;-29
2022/03/13 11:08:41;;;;;;;;;;;15.20;58.70;;;;;;5268230;28;20288;-28
2022/03/13 11:11:16;;;;;;;;;;;15.20;57.70;;;;;;5271975;28;19927;-29
2022/03/13 11:13:52;;;;;;;;;;;15.20;60.40;;;;;;5280593;28;19931;-30
2022/03/13 11:16:28;;;;;;;;;;;15.20;55.80;;;;;;5268866;28;19931;-28
2022/03/13 11:19:04;;;;;;;;;;;15.20;58.50;;;;;;5283169;28;19969;-29
2022/03/13 11:21:35;;;;;;;;;;;15.20;57.20;;;;;;5267876;28;19924;-29
2022/03/13 11:24:07;;;;;;;;;;;15.20;54.10;;;;;;5267930;28;19925;-32
2022/03/13 11:26:40;;;;;;;;;;;15.10;53.90;;;;;;5249627;28;19931;-29
2022/03/13 11:29:11;;;;;;;;;;;15.20;54.50;;;;;;5249948;28;19924;-29
2022/03/13 11:31:42;;;;;;;;;;;15.10;53.00;;;;;;5267717;28;19931;-29
2022/03/13 11:34:18;;;;;;;;;;;15.10;60.60;;;;;;5267876;28;19928;-32
2022/03/13 11:36:49;;;;;;;;;;;15.20;59.80;;;;;;5273561;28;19923;-29
2022/03/13 11:39:23;;;;;;;;;;;15.20;66.10;;;;;;5284939;28;19924;-28
2022/03/13 11:41:54;;;;;;;;;;;15.30;62.10;;;;;;5281224;28;19973;-32
2022/03/13 11:44:30;;;;;;;;;;;15.30;54.40;;;;;;5248681;28;19977;-29
2022/03/13 11:47:02;;;;;;;;;;;15.30;52.90;;;;;;5263365;28;20328;-29
2022/03/13 11:49:34;;;;;;;;;;;15.30;52.10;;;;;;5247295;28;19928;-29
2022/03/13 11:52:11;;;;;;;;;;;15.20;51.70;;;;;;5267552;28;19928;-29
2022/03/13 11:54:56;;;;;;;;;;;15.20;51.20;;;;;;5254754;28;20019;-29
2022/03/13 11:57:43;;;;;;;;;;;15.20;50.60;;;;;;5248986;28;19925;-32
2022/03/13 12:00:14;;;;;;;;;;;15.20;50.20;;;;;;5249333;28;20408;-29
2022/03/13 12:02:45;;;;;;;;;;;15.20;51.40;;;;;;5248664;28;19924;-33
2022/03/13 12:05:28;;;;;;;;;;;15.20;49.90;;;;;;5249177;28;20370;-29
2022/03/13 12:08:09;;;;;;;;;;;15.20;50.20;;;;;;5248673;28;19924;-29
2022/03/13 12:10:45;;;;;;;;;;;15.30;51.90;;;;;;5263389;28;19924;-31
2022/03/13 12:13:17;;;;;;;;;;;15.40;50.80;;;;;;5263840;28;19925;-29
2022/03/13 12:15:48;;;;;;;;;;;15.40;52.60;;;;;;5248784;28;19924;-31
2022/03/13 12:18:27;;;;;;;;;;;15.40;52.00;;;;;;5248718;28;19948;-29
2022/03/13 12:21:09;;;;;;;;;;;15.30;52.50;;;;;;5249252;28;19928;-29
2022/03/13 12:23:40;;;;;;;;;;;15.20;52.60;;;;;;5248719;28;20265;-29
2022/03/13 12:26:18;;;;;;;;;;;15.20;52.40;;;;;;5248768;28;19924;-30
2022/03/13 12:28:49;;;;;;;;;;;15.10;52.90;;;;;;5251288;28;19967;-30
2022/03/13 12:31:20;;;;;;;;;;;15.10;52.00;;;;;;5252398;28;19925;-29
2022/03/13 12:33:58;;;;;;;;;;;15.00;51.80;;;;;;5252905;28;19975;-29
2022/03/13 12:36:39;;;;;;;;;;;15.00;52.40;;;;;;5252776;28;19925;-32
2022/03/13 12:39:14;;;;;;;;;;;15.00;51.90;;;;;;5252459;28;19924;-28
2022/03/13 12:41:46;;;;;;;;;;;15.00;54.30;;;;;;5252535;28;19998;-28
2022/03/13 12:44:18;;;;;;;;;;;14.90;57.60;;;;;;5234670;28;19931;-30
2022/03/13 12:46:52;;;;;;;;;;;14.90;53.80;;;;;;5234579;28;19924;-29
2022/03/13 12:49:27;;;;;;;;;;;14.90;53.10;;;;;;5252309;28;20130;-29
2022/03/13 12:51:58;;;;;;;;;;;14.90;52.90;;;;;;5251820;28;20015;-31
2022/03/13 12:54:33;;;;;;;;;;;14.90;56.30;;;;;;5252006;28;20024;-29
2022/03/13 12:57:05;;;;;;;;;;;14.90;53.20;;;;;;5252201;28;19935;-29
2022/03/13 12:59:45;;;;;;;;;;;14.90;52.60;;;;;;5252143;28;19985;-29
2022/03/13 13:02:23;;;;;;;;;;;14.90;53.00;;;;;;5235159;28;19974;-29
2022/03/13 13:04:58;;;;;;;;;;;14.90;53.50;;;;;;5234151;28;19936;-32
2022/03/13 13:07:31;;;;;;;;;;;14.80;53.70;;;;;;5251968;28;19925;-29
2022/03/13 13:10:04;;;;;;;;;;;14.80;52.50;;;;;;5251916;28;19925;-29
2022/03/13 13:12:36;;;;;;;;;;;14.80;53.10;;;;;;5251907;28;19924;-29
2022/03/13 13:15:08;;;;;;;;;;;14.80;52.50;;;;;;5234085;28;19978;-29
2022/03/13 13:17:39;;;;;;;;;;;14.80;54.50;;;;;;5251852;28;20323;-29
2022/03/13 13:20:20;;;;;;;;;;;14.70;53.00;;;;;;5251569;28;19925;-29
2022/03/13 13:23:10;;;;;;;;;;;14.70;53.20;;;;;;5251688;28;20015;-30
2022/03/13 13:25:41;;;;;;;;;;;14.70;54.70;;;;;;5251954;28;20317;-34
2022/03/13 13:28:12;;;;;;;;;;;14.70;55.70;;;;;;5251514;28;19948;-29
2022/03/13 13:30:46;;;;;;;;;;;14.70;53.20;;;;;;5251605;28;19928;-29
2022/03/13 13:33:17;;;;;;;;;;;14.70;53.50;;;;;;5233700;28;19924;-29
2022/03/13 13:35:51;;;;;;;;;;;14.70;53.50;;;;;;5251176;28;20284;-31
2022/03/13 13:38:31;;;;;;;;;;;14.70;54.20;;;;;;5250535;28;20263;-29
2022/03/13 13:41:03;;;;;;;;;;;14.70;54.50;;;;;;5251679;28;19929;-32
2022/03/13 13:43:41;;;;;;;;;;;14.60;54.20;;;;;;5251119;28;19924;-31
2022/03/13 13:46:13;;;;;;;;;;;14.70;58.40;;;;;;5251246;28;20425;-29
2022/03/13 13:48:45;;;;;;;;;;;14.70;60.50;;;;;;5233637;28;19964;-29
2022/03/13 13:51:30;;;;;;;;;;;14.60;56.90;;;;;;5251233;28;19924;-33
2022/03/13 13:54:11;;;;;;;;;;;14.70;58.50;;;;;;5251311;28;20301;-30
2022/03/13 13:56:49;;;;;;;;;;;14.60;58.70;;;;;;5251058;28;20289;-28
2022/03/13 13:59:30;;;;;;;;;;;14.60;58.30;;;;;;5250767;28;19924;-30
2022/03/13 14:02:03;;;;;;;;;;;14.60;60.30;;;;;;5250855;28;19924;-33
2022/03/13 14:04:35;;;;;;;;;;;14.60;59.80;;;;;;5250901;28;19925;-31
2022/03/13 14:07:06;;;;;;;;;;;14.60;58.80;;;;;;5250694;28;20281;-29
2022/03/13 14:09:38;;;;;;;;;;;14.60;60.40;;;;;;5233228;28;19947;-29
2022/03/13 14:12:09;;;;;;;;;;;14.60;58.60;;;;;;5251016;28;19924;-33
2022/03/13 14:14:41;;;;;;;;;;;14.60;59.70;;;;;;5233523;28;19924;-30
2022/03/13 14:17:12;;;;;;;;;;;14.60;59.40;;;;;;5250639;28;19924;-33
2022/03/13 14:19:43;;;;;;;;;;;14.60;58.80;;;;;;5250194;28;20439;-29
2022/03/13 14:22:15;;;;;;;;;;;14.70;60.50;;;;;;5250720;28;19928;-30
2022/03/13 14:24:46;;;;;;;;;;;14.60;61.10;;;;;;5250268;28;19925;-29
2022/03/13 14:27:17;;;;;;;;;;;14.70;61.00;;;;;;5250445;28;19947;-29
2022/03/13 14:29:48;;;;;;;;;;;14.70;60.50;;;;;;5250226;28;20002;-29
2022/03/13 14:32:19;;;;;;;;;;;14.70;61.70;;;;;;5249990;28;19932;-29
2022/03/13 14:34:50;;;;;;;;;;;14.70;60.90;;;;;;5249691;28;19993;-29
2022/03/13 14:37:24;;;;;;;;;;;14.70;62.50;;;;;;5215910;28;19924;-29
2022/03/13 14:39:55;;;;;;;;;;;14.80;69.10;;;;;;5249470;28;19970;-29
2022/03/13 14:42:26;;;;;;;;;;;14.80;71.00;;;;;;5242174;28;19929;-31
2022/03/13 14:44:57;;;;;;;;;;;14.90;76.40;;;;;;5247756;28;19928;-29
2022/03/13 14:47:28;;;;;;;;;;;14.90;66.40;;;;;;5247440;28;19931;-32